sensor_id;sensor_type;location;lat;lon;timestamp;temperature;humidity
23405;DHT22;11875;49.356;2.718;2023-02-23T00:01:14;10.80;99.90
23405;DHT22;11875;49.356;2.718;2023-02-23T00:03:40;10.80;99.90
23405;DHT22;11875;49.356;2.718;2023-02-23T00:06:07;10.80;99.90
23405;DHT22;11875;49.356;2.718;2023-02-23T00:08:33;10.80;99.90
23405;DHT22;11875;49.356;2.718;2023-02-23T00:11:02;10.80;99.90
23405;DHT22;11875;49.356;2.718;2023-02-23T00:13:30;10.80;99.90
23405;DHT22;11875;49.356;2.718;2023-02-23T00:15:56;10.80;99.90
23405;DHT22;11875;49.356;2.718;2023-02-23T00:18:21;10.80;99.90
23405;DHT22;11875;49.356;2.718;2023-02-23T00:20:56;10.70;99.90
23405;DHT22;11875;49.356;2.718;2023-02-23T00:23:23;10.70;99.90
23405;DHT22;11875;49.356;2.718;2023-02-23T00:25:51;10.70;99.90
23405;DHT22;11875;49.356;2.718;2023-02-23T00:28:17;10.60;99.90
23405;DHT22;11875;49.356;2.718;2023-02-23T00:30:43;10.60;99.90
23405;DHT22;11875;49.356;2.718;2023-02-23T00:33:10;10.70;99.90
23405;DHT22;11875;49.356;2.718;2023-02-23T00:35:36;10.70;99.90
23405;DHT22;11875;49.356;2.718;2023-02-23T00:38:02;10.70;99.90
23405;DHT22;11875;49.356;2.718;2023-02-23T00:40:27;10.80;99.90
23405;DHT22;11875;49.356;2.718;2023-02-23T00:42:54;10.80;99.90
23405;DHT22;11875;49.356;2.718;2023-02-23T00:45:19;10.90;99.90
23405;DHT22;11875;49.356;2.718;2023-02-23T00:47:45;10.90;99.90
23405;DHT22;11875;49.356;2.718;2023-02-23T00:50:15;10.90;99.90
23405;DHT22;11875;49.356;2.718;2023-02-23T00:52:42;10.90;99.90
23405;DHT22;11875;49.356;2.718;2023-02-23T00:55:10;10.90;99.90
23405;DHT22;11875;49.356;2.718;2023-02-23T00:57:37;11.00;99.90
23405;DHT22;11875;49.356;2.718;2023-02-23T01:00:10;11.00;99.90
23405;DHT22;11875;49.356;2.718;2023-02-23T01:02:43;11.00;99.90
23405;DHT22;11875;49.356;2.718;2023-02-23T01:05:10;11.10;99.90
23405;DHT22;11875;49.356;2.718;2023-02-23T01:07:37;11.10;99.90
23405;DHT22;11875;49.356;2.718;2023-02-23T01:10:03;11.10;99.90
23405;DHT22;11875;49.356;2.718;2023-02-23T01:12:49;11.00;99.90
23405;DHT22;11875;49.356;2.718;2023-02-23T01:15:17;11.00;99.90
23405;DHT22;11875;49.356;2.718;2023-02-23T01:17:43;11.00;99.90
23405;DHT22;11875;49.356;2.718;2023-02-23T01:20:11;10.90;99.90
23405;DHT22;11875;49.356;2.718;2023-02-23T01:22:41;10.90;99.90
23405;DHT22;11875;49.356;2.718;2023-02-23T01:25:07;10.90;99.90
23405;DHT22;11875;49.356;2.718;2023-02-23T01:27:32;10.80;99.90
23405;DHT22;11875;49.356;2.718;2023-02-23T01:30:00;10.70;99.90
23405;DHT22;11875;49.356;2.718;2023-02-23T01:32:25;10.60;99.90
23405;DHT22;11875;49.356;2.718;2023-02-23T01:34:51;10.60;99.90
23405;DHT22;11875;49.356;2.718;2023-02-23T01:37:16;10.60;99.90
23405;DHT22;11875;49.356;2.718;2023-02-23T01:39:42;10.50;99.90
23405;DHT22;11875;49.356;2.718;2023-02-23T01:42:12;10.50;99.90
23405;DHT22;11875;49.356;2.718;2023-02-23T01:47:06;10.50;99.90
23405;DHT22;11875;49.356;2.718;2023-02-23T01:49:33;10.60;99.90
23405;DHT22;11875;49.356;2.718;2023-02-23T01:52:05;10.60;99.90
23405;DHT22;11875;49.356;2.718;2023-02-23T01:54:47;10.70;99.90
23405;DHT22;11875;49.356;2.718;2023-02-23T01:57:16;10.70;99.90
23405;DHT22;11875;49.356;2.718;2023-02-23T01:59:47;10.60;99.90
23405;DHT22;11875;49.356;2.718;2023-02-23T02:02:15;10.70;99.90
23405;DHT22;11875;49.356;2.718;2023-02-23T02:04:42;10.60;99.90
23405;DHT22;11875;49.356;2.718;2023-02-23T02:07:25;10.70;99.90
23405;DHT22;11875;49.356;2.718;2023-02-23T02:09:55;10.70;99.90
23405;DHT22;11875;49.356;2.718;2023-02-23T02:15:09;10.50;99.90
23405;DHT22;11875;49.356;2.718;2023-02-23T02:27:17;10.50;99.90
23405;DHT22;11875;49.356;2.718;2023-02-23T02:35:36;10.40;99.90
23405;DHT22;11875;49.356;2.718;2023-02-23T02:38:29;10.50;99.90
23405;DHT22;11875;49.356;2.718;2023-02-23T02:46:22;10.40;99.90
23405;DHT22;11875;49.356;2.718;2023-02-23T02:49:04;10.40;99.90
23405;DHT22;11875;49.356;2.718;2023-02-23T02:51:45;10.40;99.90
23405;DHT22;11875;49.356;2.718;2023-02-23T02:54:33;10.50;99.90
23405;DHT22;11875;49.356;2.718;2023-02-23T02:57:02;10.40;99.90
23405;DHT22;11875;49.356;2.718;2023-02-23T02:59:29;10.40;99.90
23405;DHT22;11875;49.356;2.718;2023-02-23T03:02:20;10.50;99.90
23405;DHT22;11875;49.356;2.718;2023-02-23T03:05:13;10.50;99.90
23405;DHT22;11875;49.356;2.718;2023-02-23T03:11:09;10.50;99.90
23405;DHT22;11875;49.356;2.718;2023-02-23T03:17:04;10.50;99.90
23405;DHT22;11875;49.356;2.718;2023-02-23T03:22:50;10.50;99.90
23405;DHT22;11875;49.356;2.718;2023-02-23T03:26:01;10.50;99.90
23405;DHT22;11875;49.356;2.718;2023-02-23T03:29:06;10.50;99.90
23405;DHT22;11875;49.356;2.718;2023-02-23T03:35:20;10.60;99.90
23405;DHT22;11875;49.356;2.718;2023-02-23T03:38:26;10.60;99.90
23405;DHT22;11875;49.356;2.718;2023-02-23T03:41:14;10.60;99.90
23405;DHT22;11875;49.356;2.718;2023-02-23T03:44:10;10.60;99.90
23405;DHT22;11875;49.356;2.718;2023-02-23T03:46:56;10.60;99.90
23405;DHT22;11875;49.356;2.718;2023-02-23T03:49:42;10.50;99.90
23405;DHT22;11875;49.356;2.718;2023-02-23T03:52:32;10.50;99.90
23405;DHT22;11875;49.356;2.718;2023-02-23T03:55:25;10.50;99.90
23405;DHT22;11875;49.356;2.718;2023-02-23T03:58:13;10.50;99.90
23405;DHT22;11875;49.356;2.718;2023-02-23T04:01:02;10.50;99.90
23405;DHT22;11875;49.356;2.718;2023-02-23T04:03:47;10.50;99.90
23405;DHT22;11875;49.356;2.718;2023-02-23T04:06:37;10.50;99.90
23405;DHT22;11875;49.356;2.718;2023-02-23T04:09:23;10.40;99.90
23405;DHT22;11875;49.356;2.718;2023-02-23T04:12:20;10.40;99.90
23405;DHT22;11875;49.356;2.718;2023-02-23T04:15:25;10.20;99.90
23405;DHT22;11875;49.356;2.718;2023-02-23T04:17:52;10.10;99.90
23405;DHT22;11875;49.356;2.718;2023-02-23T04:20:18;10.10;99.90
23405;DHT22;11875;49.356;2.718;2023-02-23T04:22:44;9.90;99.90
23405;DHT22;11875;49.356;2.718;2023-02-23T04:25:10;9.80;99.90
23405;DHT22;11875;49.356;2.718;2023-02-23T04:27:37;9.80;99.90
23405;DHT22;11875;49.356;2.718;2023-02-23T04:30:04;9.80;99.90
23405;DHT22;11875;49.356;2.718;2023-02-23T04:32:30;10.00;99.90
23405;DHT22;11875;49.356;2.718;2023-02-23T04:34:56;10.00;99.90
23405;DHT22;11875;49.356;2.718;2023-02-23T04:37:21;9.90;99.90
23405;DHT22;11875;49.356;2.718;2023-02-23T04:39:47;9.90;99.90
23405;DHT22;11875;49.356;2.718;2023-02-23T04:42:15;9.90;99.90
23405;DHT22;11875;49.356;2.718;2023-02-23T04:44:42;10.00;99.90
23405;DHT22;11875;49.356;2.718;2023-02-23T04:47:07;10.00;99.90
23405;DHT22;11875;49.356;2.718;2023-02-23T04:49:33;10.10;99.90
23405;DHT22;11875;49.356;2.718;2023-02-23T04:51:59;10.20;99.90
23405;DHT22;11875;49.356;2.718;2023-02-23T04:54:25;10.10;99.90
23405;DHT22;11875;49.356;2.718;2023-02-23T04:56:50;10.20;99.90
23405;DHT22;11875;49.356;2.718;2023-02-23T04:59:17;10.10;99.90
23405;DHT22;11875;49.356;2.718;2023-02-23T05:01:43;10.00;99.90
23405;DHT22;11875;49.356;2.718;2023-02-23T05:04:08;10.10;99.90
23405;DHT22;11875;49.356;2.718;2023-02-23T05:06:34;10.10;99.90
23405;DHT22;11875;49.356;2.718;2023-02-23T05:09:00;10.00;99.90
23405;DHT22;11875;49.356;2.718;2023-02-23T05:11:28;10.10;99.90
23405;DHT22;11875;49.356;2.718;2023-02-23T05:13:53;10.10;99.90
23405;DHT22;11875;49.356;2.718;2023-02-23T05:16:19;10.10;99.90
23405;DHT22;11875;49.356;2.718;2023-02-23T05:18:45;10.10;99.90
23405;DHT22;11875;49.356;2.718;2023-02-23T05:21:11;10.10;99.90
23405;DHT22;11875;49.356;2.718;2023-02-23T05:23:37;10.10;99.90
23405;DHT22;11875;49.356;2.718;2023-02-23T05:26:06;10.10;99.90
23405;DHT22;11875;49.356;2.718;2023-02-23T05:28:33;10.10;99.90
23405;DHT22;11875;49.356;2.718;2023-02-23T05:31:00;10.10;99.90
23405;DHT22;11875;49.356;2.718;2023-02-23T05:33:25;10.10;99.90
23405;DHT22;11875;49.356;2.718;2023-02-23T05:35:51;10.10;99.90
23405;DHT22;11875;49.356;2.718;2023-02-23T05:38:17;10.10;99.90
23405;DHT22;11875;49.356;2.718;2023-02-23T05:40:43;10.20;99.90
23405;DHT22;11875;49.356;2.718;2023-02-23T05:43:09;10.20;99.90
23405;DHT22;11875;49.356;2.718;2023-02-23T05:45:42;10.20;99.90
23405;DHT22;11875;49.356;2.718;2023-02-23T05:48:09;10.30;99.90
23405;DHT22;11875;49.356;2.718;2023-02-23T05:50:34;10.30;99.90
23405;DHT22;11875;49.356;2.718;2023-02-23T05:53:00;10.30;99.90
23405;DHT22;11875;49.356;2.718;2023-02-23T05:55:27;10.20;99.90
23405;DHT22;11875;49.356;2.718;2023-02-23T05:57:52;10.20;99.90
23405;DHT22;11875;49.356;2.718;2023-02-23T06:00:18;10.10;99.90
23405;DHT22;11875;49.356;2.718;2023-02-23T06:02:44;10.20;99.90
23405;DHT22;11875;49.356;2.718;2023-02-23T06:05:11;10.20;99.90
23405;DHT22;11875;49.356;2.718;2023-02-23T06:07:37;10.20;99.90
23405;DHT22;11875;49.356;2.718;2023-02-23T06:10:03;10.10;99.90
23405;DHT22;11875;49.356;2.718;2023-02-23T06:12:29;10.10;99.90
23405;DHT22;11875;49.356;2.718;2023-02-23T06:14:55;10.00;99.90
23405;DHT22;11875;49.356;2.718;2023-02-23T06:17:21;10.00;99.90
23405;DHT22;11875;49.356;2.718;2023-02-23T06:19:47;9.90;99.90
23405;DHT22;11875;49.356;2.718;2023-02-23T06:22:13;9.80;99.90
23405;DHT22;11875;49.356;2.718;2023-02-23T06:24:42;9.80;99.90
23405;DHT22;11875;49.356;2.718;2023-02-23T06:27:07;9.90;99.90
23405;DHT22;11875;49.356;2.718;2023-02-23T06:29:33;9.90;99.90
23405;DHT22;11875;49.356;2.718;2023-02-23T06:31:58;10.00;99.90
23405;DHT22;11875;49.356;2.718;2023-02-23T06:34:24;9.90;99.90
23405;DHT22;11875;49.356;2.718;2023-02-23T06:36:50;9.90;99.90
23405;DHT22;11875;49.356;2.718;2023-02-23T06:39:15;9.80;99.90
23405;DHT22;11875;49.356;2.718;2023-02-23T06:41:41;9.80;99.90
23405;DHT22;11875;49.356;2.718;2023-02-23T06:44:07;9.80;99.90
23405;DHT22;11875;49.356;2.718;2023-02-23T06:46:32;9.70;99.90
23405;DHT22;11875;49.356;2.718;2023-02-23T06:48:58;9.70;99.90
23405;DHT22;11875;49.356;2.718;2023-02-23T06:51:24;9.70;99.90
23405;DHT22;11875;49.356;2.718;2023-02-23T06:53:50;9.70;99.90
23405;DHT22;11875;49.356;2.718;2023-02-23T06:56:17;9.70;99.90
23405;DHT22;11875;49.356;2.718;2023-02-23T06:58:43;9.70;99.90
23405;DHT22;11875;49.356;2.718;2023-02-23T07:01:09;9.80;99.90
23405;DHT22;11875;49.356;2.718;2023-02-23T07:03:36;9.80;99.90
23405;DHT22;11875;49.356;2.718;2023-02-23T07:06:02;9.80;99.90
23405;DHT22;11875;49.356;2.718;2023-02-23T07:08:29;9.80;99.90
23405;DHT22;11875;49.356;2.718;2023-02-23T07:10:54;9.80;99.90
23405;DHT22;11875;49.356;2.718;2023-02-23T07:13:22;9.80;99.90
23405;DHT22;11875;49.356;2.718;2023-02-23T07:15:48;9.80;99.90
23405;DHT22;11875;49.356;2.718;2023-02-23T07:18:13;9.80;99.90
23405;DHT22;11875;49.356;2.718;2023-02-23T07:20:39;9.80;99.90
23405;DHT22;11875;49.356;2.718;2023-02-23T07:23:05;9.80;99.90
23405;DHT22;11875;49.356;2.718;2023-02-23T07:25:31;9.80;99.90
23405;DHT22;11875;49.356;2.718;2023-02-23T07:27:56;9.70;99.90
23405;DHT22;11875;49.356;2.718;2023-02-23T07:30:23;9.70;99.90
23405;DHT22;11875;49.356;2.718;2023-02-23T07:32:53;9.80;99.90
23405;DHT22;11875;49.356;2.718;2023-02-23T07:35:19;9.70;99.90
23405;DHT22;11875;49.356;2.718;2023-02-23T07:37:45;9.70;99.90
23405;DHT22;11875;49.356;2.718;2023-02-23T07:40:11;9.70;99.90
23405;DHT22;11875;49.356;2.718;2023-02-23T07:42:37;9.70;99.90
23405;DHT22;11875;49.356;2.718;2023-02-23T07:45:03;9.70;99.90
23405;DHT22;11875;49.356;2.718;2023-02-23T07:47:29;9.60;99.90
23405;DHT22;11875;49.356;2.718;2023-02-23T07:49:58;9.50;99.90
23405;DHT22;11875;49.356;2.718;2023-02-23T07:52:25;9.50;99.90
23405;DHT22;11875;49.356;2.718;2023-02-23T07:54:50;9.50;99.90
23405;DHT22;11875;49.356;2.718;2023-02-23T07:57:16;9.50;99.90
23405;DHT22;11875;49.356;2.718;2023-02-23T07:59:42;9.50;99.90
23405;DHT22;11875;49.356;2.718;2023-02-23T08:02:11;9.40;99.90
23405;DHT22;11875;49.356;2.718;2023-02-23T08:04:37;9.30;99.90
23405;DHT22;11875;49.356;2.718;2023-02-23T08:07:03;9.40;99.90
23405;DHT22;11875;49.356;2.718;2023-02-23T08:09:28;9.40;99.90
23405;DHT22;11875;49.356;2.718;2023-02-23T08:11:57;9.40;99.90
23405;DHT22;11875;49.356;2.718;2023-02-23T08:14:22;9.50;99.90
23405;DHT22;11875;49.356;2.718;2023-02-23T08:16:48;9.50;99.90
23405;DHT22;11875;49.356;2.718;2023-02-23T08:19:14;9.40;99.90
23405;DHT22;11875;49.356;2.718;2023-02-23T08:21:40;9.40;99.90
23405;DHT22;11875;49.356;2.718;2023-02-23T08:24:08;9.40;99.90
23405;DHT22;11875;49.356;2.718;2023-02-23T08:26:35;9.20;99.90
23405;DHT22;11875;49.356;2.718;2023-02-23T08:29:03;9.10;99.90
23405;DHT22;11875;49.356;2.718;2023-02-23T08:31:28;9.00;99.90
23405;DHT22;11875;49.356;2.718;2023-02-23T08:33:54;8.90;99.90
23405;DHT22;11875;49.356;2.718;2023-02-23T08:36:20;8.90;99.90
23405;DHT22;11875;49.356;2.718;2023-02-23T08:38:46;8.90;99.90
23405;DHT22;11875;49.356;2.718;2023-02-23T08:41:12;8.90;99.90
23405;DHT22;11875;49.356;2.718;2023-02-23T08:43:38;8.90;99.90
23405;DHT22;11875;49.356;2.718;2023-02-23T08:46:04;8.70;99.90
23405;DHT22;11875;49.356;2.718;2023-02-23T08:48:31;8.70;99.90
23405;DHT22;11875;49.356;2.718;2023-02-23T08:50:57;8.80;99.90
23405;DHT22;11875;49.356;2.718;2023-02-23T08:53:24;8.80;99.90
23405;DHT22;11875;49.356;2.718;2023-02-23T08:55:58;8.80;99.90
23405;DHT22;11875;49.356;2.718;2023-02-23T08:58:24;8.80;99.90
23405;DHT22;11875;49.356;2.718;2023-02-23T09:00:49;8.80;99.90
23405;DHT22;11875;49.356;2.718;2023-02-23T09:03:15;8.90;99.90
23405;DHT22;11875;49.356;2.718;2023-02-23T09:05:41;8.90;99.90
23405;DHT22;11875;49.356;2.718;2023-02-23T09:08:07;8.90;99.90
23405;DHT22;11875;49.356;2.718;2023-02-23T09:10:33;9.00;99.90
23405;DHT22;11875;49.356;2.718;2023-02-23T09:12:58;9.00;99.90
23405;DHT22;11875;49.356;2.718;2023-02-23T09:15:24;9.00;99.90
23405;DHT22;11875;49.356;2.718;2023-02-23T09:17:50;9.00;99.90
23405;DHT22;11875;49.356;2.718;2023-02-23T09:20:16;9.00;99.90
23405;DHT22;11875;49.356;2.718;2023-02-23T09:22:42;9.10;99.90
23405;DHT22;11875;49.356;2.718;2023-02-23T09:25:19;9.20;99.90
23405;DHT22;11875;49.356;2.718;2023-02-23T09:27:48;9.20;99.90
23405;DHT22;11875;49.356;2.718;2023-02-23T09:30:16;9.20;99.90
23405;DHT22;11875;49.356;2.718;2023-02-23T09:32:46;9.30;99.90
23405;DHT22;11875;49.356;2.718;2023-02-23T09:35:12;9.30;99.90
23405;DHT22;11875;49.356;2.718;2023-02-23T09:37:49;9.30;99.90
23405;DHT22;11875;49.356;2.718;2023-02-23T09:40:45;9.30;99.90
23405;DHT22;11875;49.356;2.718;2023-02-23T09:46:09;9.30;99.90
23405;DHT22;11875;49.356;2.718;2023-02-23T09:48:38;9.30;99.90
23405;DHT22;11875;49.356;2.718;2023-02-23T09:51:06;9.30;99.90
23405;DHT22;11875;49.356;2.718;2023-02-23T09:53:37;9.30;99.90
23405;DHT22;11875;49.356;2.718;2023-02-23T09:56:39;9.30;99.90
23405;DHT22;11875;49.356;2.718;2023-02-23T09:59:15;9.40;99.90
23405;DHT22;11875;49.356;2.718;2023-02-23T10:04:19;9.50;99.90
23405;DHT22;11875;49.356;2.718;2023-02-23T10:07:12;10.60;99.90
23405;DHT22;11875;49.356;2.718;2023-02-23T10:17:39;9.60;99.90
23405;DHT22;11875;49.356;2.718;2023-02-23T10:20:26;9.70;99.90
23405;DHT22;11875;49.356;2.718;2023-02-23T10:22:58;9.90;99.90
23405;DHT22;11875;49.356;2.718;2023-02-23T10:25:30;10.00;99.90
23405;DHT22;11875;49.356;2.718;2023-02-23T10:27:59;10.00;99.90
23405;DHT22;11875;49.356;2.718;2023-02-23T10:30:31;9.90;99.90
23405;DHT22;11875;49.356;2.718;2023-02-23T10:35:27;10.10;99.90
23405;DHT22;11875;49.356;2.718;2023-02-23T10:37:54;9.90;99.90
23405;DHT22;11875;49.356;2.718;2023-02-23T10:40:26;10.00;99.90
23405;DHT22;11875;49.356;2.718;2023-02-23T10:42:54;10.20;99.90
23405;DHT22;11875;49.356;2.718;2023-02-23T10:45:23;10.20;99.90
23405;DHT22;11875;49.356;2.718;2023-02-23T10:48:07;10.20;99.90
23405;DHT22;11875;49.356;2.718;2023-02-23T10:50:36;10.30;99.90
23405;DHT22;11875;49.356;2.718;2023-02-23T10:53:23;10.30;99.90
23405;DHT22;11875;49.356;2.718;2023-02-23T10:58:30;10.60;99.90
23405;DHT22;11875;49.356;2.718;2023-02-23T11:01:00;10.60;99.90
23405;DHT22;11875;49.356;2.718;2023-02-23T11:03:47;10.50;99.90
23405;DHT22;11875;49.356;2.718;2023-02-23T11:06:35;10.50;99.90
23405;DHT22;11875;49.356;2.718;2023-02-23T11:14:26;10.90;99.90
23405;DHT22;11875;49.356;2.718;2023-02-23T11:16:54;10.90;99.90
23405;DHT22;11875;49.356;2.718;2023-02-23T11:19:26;11.10;99.90
23405;DHT22;11875;49.356;2.718;2023-02-23T11:21:54;11.10;99.90
23405;DHT22;11875;49.356;2.718;2023-02-23T11:24:27;11.20;99.90
23405;DHT22;11875;49.356;2.718;2023-02-23T11:27:06;11.30;99.90
23405;DHT22;11875;49.356;2.718;2023-02-23T11:29:37;11.20;99.90
23405;DHT22;11875;49.356;2.718;2023-02-23T11:32:27;11.30;99.90
23405;DHT22;11875;49.356;2.718;2023-02-23T11:37:47;11.20;99.90
23405;DHT22;11875;49.356;2.718;2023-02-23T11:40:25;11.30;99.90
23405;DHT22;11875;49.356;2.718;2023-02-23T11:43:14;11.40;99.90
23405;DHT22;11875;49.356;2.718;2023-02-23T11:45:52;11.50;99.90
23405;DHT22;11875;49.356;2.718;2023-02-23T11:48:30;11.60;99.90
23405;DHT22;11875;49.356;2.718;2023-02-23T11:50:57;11.70;99.90
23405;DHT22;11875;49.356;2.718;2023-02-23T11:53:44;11.80;99.90
23405;DHT22;11875;49.356;2.718;2023-02-23T11:56:10;11.90;99.90
23405;DHT22;11875;49.356;2.718;2023-02-23T12:01:06;11.90;99.90
23405;DHT22;11875;49.356;2.718;2023-02-23T12:03:38;11.90;99.90
23405;DHT22;11875;49.356;2.718;2023-02-23T12:06:09;11.90;99.90
23405;DHT22;11875;49.356;2.718;2023-02-23T12:08:42;11.80;99.90
23405;DHT22;11875;49.356;2.718;2023-02-23T12:11:17;11.80;99.90
23405;DHT22;11875;49.356;2.718;2023-02-23T12:14:10;11.80;99.90
23405;DHT22;11875;49.356;2.718;2023-02-23T12:17:01;11.80;99.90
23405;DHT22;11875;49.356;2.718;2023-02-23T12:19:33;11.90;99.90
23405;DHT22;11875;49.356;2.718;2023-02-23T12:22:05;12.00;99.90
23405;DHT22;11875;49.356;2.718;2023-02-23T12:24:43;12.10;99.90
23405;DHT22;11875;49.356;2.718;2023-02-23T12:27:17;12.20;99.90
23405;DHT22;11875;49.356;2.718;2023-02-23T12:32:45;12.30;99.90
23405;DHT22;11875;49.356;2.718;2023-02-23T12:35:18;12.30;99.90
23405;DHT22;11875;49.356;2.718;2023-02-23T12:41:04;12.40;99.90
23405;DHT22;11875;49.356;2.718;2023-02-23T12:43:55;12.40;99.90
23405;DHT22;11875;49.356;2.718;2023-02-23T12:46:29;12.60;99.90
23405;DHT22;11875;49.356;2.718;2023-02-23T12:49:10;12.60;99.90
23405;DHT22;11875;49.356;2.718;2023-02-23T12:51:52;12.60;99.90
23405;DHT22;11875;49.356;2.718;2023-02-23T12:54:19;12.50;99.90
23405;DHT22;11875;49.356;2.718;2023-02-23T12:57:21;12.50;99.90
23405;DHT22;11875;49.356;2.718;2023-02-23T13:17:01;12.50;99.90
23405;DHT22;11875;49.356;2.718;2023-02-23T13:19:54;12.60;99.90
23405;DHT22;11875;49.356;2.718;2023-02-23T13:27:46;12.70;99.90
23405;DHT22;11875;49.356;2.718;2023-02-23T13:30:15;12.80;99.90
23405;DHT22;11875;49.356;2.718;2023-02-23T13:32:40;12.80;99.90
23405;DHT22;11875;49.356;2.718;2023-02-23T13:35:14;12.70;99.90
23405;DHT22;11875;49.356;2.718;2023-02-23T13:38:13;12.60;99.90
23405;DHT22;11875;49.356;2.718;2023-02-23T13:40:57;12.80;99.90
23405;DHT22;11875;49.356;2.718;2023-02-23T13:43:31;12.70;99.90
23405;DHT22;11875;49.356;2.718;2023-02-23T13:49:01;12.50;99.90
23405;DHT22;11875;49.356;2.718;2023-02-23T13:51:34;12.60;99.90
23405;DHT22;11875;49.356;2.718;2023-02-23T13:56:47;12.90;99.90
23405;DHT22;11875;49.356;2.718;2023-02-23T13:59:19;12.90;99.90
23405;DHT22;11875;49.356;2.718;2023-02-23T14:01:49;12.80;99.90
23405;DHT22;11875;49.356;2.718;2023-02-23T14:04:35;12.60;99.90
23405;DHT22;11875;49.356;2.718;2023-02-23T14:07:15;12.70;99.90
23405;DHT22;11875;49.356;2.718;2023-02-23T14:10:13;12.70;99.90
23405;DHT22;11875;49.356;2.718;2023-02-23T14:18:26;13.00;99.90
23405;DHT22;11875;49.356;2.718;2023-02-23T14:30:27;12.80;99.90
23405;DHT22;11875;49.356;2.718;2023-02-23T14:32:29;12.70;99.90
23405;DHT22;11875;49.356;2.718;2023-02-23T14:34:59;12.80;99.90
23405;DHT22;11875;49.356;2.718;2023-02-23T14:37:29;12.80;99.90
23405;DHT22;11875;49.356;2.718;2023-02-23T14:42:37;12.80;99.90
23405;DHT22;11875;49.356;2.718;2023-02-23T14:45:21;12.70;99.90
23405;DHT22;11875;49.356;2.718;2023-02-23T14:47:52;12.60;99.90
23405;DHT22;11875;49.356;2.718;2023-02-23T14:50:31;12.70;99.90
23405;DHT22;11875;49.356;2.718;2023-02-23T14:52:58;12.60;99.90
23405;DHT22;11875;49.356;2.718;2023-02-23T14:55:30;12.50;99.90
23405;DHT22;11875;49.356;2.718;2023-02-23T14:57:57;12.50;99.90
23405;DHT22;11875;49.356;2.718;2023-02-23T15:00:31;12.50;99.90
23405;DHT22;11875;49.356;2.718;2023-02-23T15:03:04;12.40;99.90
23405;DHT22;11875;49.356;2.718;2023-02-23T15:05:41;12.50;99.90
23405;DHT22;11875;49.356;2.718;2023-02-23T15:08:15;12.60;99.90
23405;DHT22;11875;49.356;2.718;2023-02-23T15:10:46;12.70;99.90
23405;DHT22;11875;49.356;2.718;2023-02-23T15:15:54;12.80;99.90
23405;DHT22;11875;49.356;2.718;2023-02-23T15:18:29;12.90;99.90
23405;DHT22;11875;49.356;2.718;2023-02-23T15:20:56;12.80;99.90
23405;DHT22;11875;49.356;2.718;2023-02-23T15:23:23;12.80;99.90
23405;DHT22;11875;49.356;2.718;2023-02-23T15:25:49;12.70;99.90
23405;DHT22;11875;49.356;2.718;2023-02-23T15:28:27;12.70;99.90
23405;DHT22;11875;49.356;2.718;2023-02-23T15:31:00;12.60;99.90
23405;DHT22;11875;49.356;2.718;2023-02-23T15:33:26;12.70;99.90
23405;DHT22;11875;49.356;2.718;2023-02-23T15:38:41;12.50;99.90
23405;DHT22;11875;49.356;2.718;2023-02-23T15:41:33;12.40;99.90
23405;DHT22;11875;49.356;2.718;2023-02-23T15:44:15;12.30;99.90
23405;DHT22;11875;49.356;2.718;2023-02-23T15:46:44;12.30;99.90
23405;DHT22;11875;49.356;2.718;2023-02-23T15:49:12;12.30;99.90
23405;DHT22;11875;49.356;2.718;2023-02-23T15:54:45;12.50;99.90
23405;DHT22;11875;49.356;2.718;2023-02-23T15:57:20;12.60;99.90
23405;DHT22;11875;49.356;2.718;2023-02-23T15:59:49;12.50;99.90
23405;DHT22;11875;49.356;2.718;2023-02-23T16:02:19;12.50;99.90
23405;DHT22;11875;49.356;2.718;2023-02-23T16:04:47;12.50;99.90
23405;DHT22;11875;49.356;2.718;2023-02-23T16:07:23;12.40;99.90
23405;DHT22;11875;49.356;2.718;2023-02-23T16:10:03;12.40;99.90
23405;DHT22;11875;49.356;2.718;2023-02-23T16:12:31;12.40;99.90
23405;DHT22;11875;49.356;2.718;2023-02-23T16:15:04;12.30;99.90
23405;DHT22;11875;49.356;2.718;2023-02-23T16:17:41;12.30;99.90
23405;DHT22;11875;49.356;2.718;2023-02-23T16:20:39;12.20;99.90
23405;DHT22;11875;49.356;2.718;2023-02-23T16:23:26;12.20;99.90
23405;DHT22;11875;49.356;2.718;2023-02-23T16:25:55;12.30;99.90
23405;DHT22;11875;49.356;2.718;2023-02-23T16:28:28;12.30;99.90
23405;DHT22;11875;49.356;2.718;2023-02-23T16:30:59;12.30;99.90
23405;DHT22;11875;49.356;2.718;2023-02-23T16:33:28;12.20;99.90
23405;DHT22;11875;49.356;2.718;2023-02-23T16:38:53;12.10;99.90
23405;DHT22;11875;49.356;2.718;2023-02-23T16:41:22;12.00;99.90
23405;DHT22;11875;49.356;2.718;2023-02-23T16:43:50;12.00;99.90
23405;DHT22;11875;49.356;2.718;2023-02-23T16:46:18;12.00;99.90
23405;DHT22;11875;49.356;2.718;2023-02-23T16:48:44;12.00;99.90
23405;DHT22;11875;49.356;2.718;2023-02-23T16:51:21;12.00;99.90
23405;DHT22;11875;49.356;2.718;2023-02-23T16:53:49;12.00;99.90
23405;DHT22;11875;49.356;2.718;2023-02-23T16:56:19;12.00;99.90
23405;DHT22;11875;49.356;2.718;2023-02-23T16:58:49;12.00;99.90
23405;DHT22;11875;49.356;2.718;2023-02-23T17:01:18;12.10;99.90
23405;DHT22;11875;49.356;2.718;2023-02-23T17:03:44;12.20;99.90
23405;DHT22;11875;49.356;2.718;2023-02-23T17:06:10;12.20;99.90
23405;DHT22;11875;49.356;2.718;2023-02-23T17:08:37;12.10;99.90
23405;DHT22;11875;49.356;2.718;2023-02-23T17:11:04;12.10;99.90
23405;DHT22;11875;49.356;2.718;2023-02-23T17:13:31;12.10;99.90
23405;DHT22;11875;49.356;2.718;2023-02-23T17:16:02;12.10;99.90
23405;DHT22;11875;49.356;2.718;2023-02-23T17:18:30;12.10;99.90
23405;DHT22;11875;49.356;2.718;2023-02-23T17:20:57;12.00;99.90
23405;DHT22;11875;49.356;2.718;2023-02-23T17:23:26;12.20;99.90
23405;DHT22;11875;49.356;2.718;2023-02-23T17:25:53;11.90;99.90
23405;DHT22;11875;49.356;2.718;2023-02-23T17:28:20;12.00;99.90
23405;DHT22;11875;49.356;2.718;2023-02-23T17:30:46;11.90;99.90
23405;DHT22;11875;49.356;2.718;2023-02-23T17:33:13;12.00;99.90
23405;DHT22;11875;49.356;2.718;2023-02-23T17:35:39;12.00;99.90
23405;DHT22;11875;49.356;2.718;2023-02-23T17:38:06;12.00;99.90
23405;DHT22;11875;49.356;2.718;2023-02-23T17:40:33;11.90;99.90
23405;DHT22;11875;49.356;2.718;2023-02-23T17:43:02;12.00;99.90
23405;DHT22;11875;49.356;2.718;2023-02-23T17:45:29;11.90;99.90
23405;DHT22;11875;49.356;2.718;2023-02-23T17:47:56;11.90;99.90
23405;DHT22;11875;49.356;2.718;2023-02-23T17:50:22;11.90;99.90
23405;DHT22;11875;49.356;2.718;2023-02-23T17:52:49;11.90;99.90
23405;DHT22;11875;49.356;2.718;2023-02-23T17:55:19;11.90;99.90
23405;DHT22;11875;49.356;2.718;2023-02-23T17:57:45;11.90;99.90
23405;DHT22;11875;49.356;2.718;2023-02-23T18:00:14;11.90;99.90
23405;DHT22;11875;49.356;2.718;2023-02-23T18:02:41;11.90;99.90
23405;DHT22;11875;49.356;2.718;2023-02-23T18:05:12;11.90;99.90
23405;DHT22;11875;49.356;2.718;2023-02-23T18:07:38;11.90;99.90
23405;DHT22;11875;49.356;2.718;2023-02-23T18:10:05;11.90;99.90
23405;DHT22;11875;49.356;2.718;2023-02-23T18:12:33;11.90;99.90